sensor_id;sensor_type;location;lat;lon;timestamp;pressure;altitude;pressure_sealevel;temperature
78961;BMP280;68362;45.970;12.646;2023-07-16T00:00:04;101132.44;;;24.40
78961;BMP280;68362;45.970;12.646;2023-07-16T00:01:07;101126.97;;;24.54
78961;BMP280;68362;45.970;12.646;2023-07-16T00:02:29;101123.41;;;24.58
78961;BMP280;68362;45.970;12.646;2023-07-16T00:03:31;101125.88;;;24.46
78961;BMP280;68362;45.970;12.646;2023-07-16T00:04:33;101124.25;;;24.45
78961;BMP280;68362;45.970;12.646;2023-07-16T00:05:36;101126.91;;;24.67
78961;BMP280;68362;45.970;12.646;2023-07-16T00:06:39;101120.94;;;24.79
78961;BMP280;68362;45.970;12.646;2023-07-16T00:07:41;101128.31;;;24.96
78961;BMP280;68362;45.970;12.646;2023-07-16T00:08:43;101125.59;;;24.96
78961;BMP280;68362;45.970;12.646;2023-07-16T00:09:46;101125.44;;;25.01
78961;BMP280;68362;45.970;12.646;2023-07-16T00:10:48;101127.56;;;24.73
78961;BMP280;68362;45.970;12.646;2023-07-16T00:11:50;101126.03;;;24.89
78961;BMP280;68362;45.970;12.646;2023-07-16T00:12:52;101125.84;;;24.77
78961;BMP280;68362;45.970;12.646;2023-07-16T00:13:54;101134.53;;;24.83
78961;BMP280;68362;45.970;12.646;2023-07-16T00:14:56;101132.19;;;24.81
78961;BMP280;68362;45.970;12.646;2023-07-16T00:15:58;101131.53;;;24.76
78961;BMP280;68362;45.970;12.646;2023-07-16T00:17:00;101129.03;;;24.88
78961;BMP280;68362;45.970;12.646;2023-07-16T00:18:06;101128.59;;;25.03
78961;BMP280;68362;45.970;12.646;2023-07-16T00:19:10;101129.09;;;24.96
78961;BMP280;68362;45.970;12.646;2023-07-16T00:20:13;101132.97;;;24.82
78961;BMP280;68362;45.970;12.646;2023-07-16T00:21:15;101127.38;;;24.69
78961;BMP280;68362;45.970;12.646;2023-07-16T00:22:17;101129.03;;;24.26
78961;BMP280;68362;45.970;12.646;2023-07-16T00:23:19;101127.69;;;24.37
78961;BMP280;68362;45.970;12.646;2023-07-16T00:24:21;101124.50;;;24.35
78961;BMP280;68362;45.970;12.646;2023-07-16T00:25:23;101128.59;;;24.32
78961;BMP280;68362;45.970;12.646;2023-07-16T00:26:26;101120.50;;;24.46
78961;BMP280;68362;45.970;12.646;2023-07-16T00:27:28;101122.31;;;24.37
78961;BMP280;68362;45.970;12.646;2023-07-16T00:28:30;101122.84;;;24.48
78961;BMP280;68362;45.970;12.646;2023-07-16T00:29:32;101111.63;;;24.46
78961;BMP280;68362;45.970;12.646;2023-07-16T00:30:35;101110.78;;;24.67
78961;BMP280;68362;45.970;12.646;2023-07-16T00:31:37;101119.25;;;24.52
78961;BMP280;68362;45.970;12.646;2023-07-16T00:32:39;101112.94;;;24.03
78961;BMP280;68362;45.970;12.646;2023-07-16T00:33:41;101110.75;;;24.05
78961;BMP280;68362;45.970;12.646;2023-07-16T00:34:44;101110.16;;;24.08
78961;BMP280;68362;45.970;12.646;2023-07-16T00:35:49;101116.84;;;24.20
78961;BMP280;68362;45.970;12.646;2023-07-16T00:36:52;101108.22;;;24.31
78961;BMP280;68362;45.970;12.646;2023-07-16T00:37:54;101107.97;;;24.19
78961;BMP280;68362;45.970;12.646;2023-07-16T00:38:56;101112.72;;;23.77
78961;BMP280;68362;45.970;12.646;2023-07-16T00:39:58;101109.97;;;23.69
78961;BMP280;68362;45.970;12.646;2023-07-16T00:41:00;101109.22;;;23.91
78961;BMP280;68362;45.970;12.646;2023-07-16T00:42:03;101109.47;;;23.67
78961;BMP280;68362;45.970;12.646;2023-07-16T00:43:05;101101.94;;;23.55
78961;BMP280;68362;45.970;12.646;2023-07-16T00:44:07;101109.91;;;23.60
78961;BMP280;68362;45.970;12.646;2023-07-16T00:45:12;101111.06;;;23.68
78961;BMP280;68362;45.970;12.646;2023-07-16T00:46:16;101107.31;;;23.55
78961;BMP280;68362;45.970;12.646;2023-07-16T00:47:21;101105.03;;;23.49
78961;BMP280;68362;45.970;12.646;2023-07-16T00:48:24;101104.56;;;23.46
78961;BMP280;68362;45.970;12.646;2023-07-16T00:49:27;101102.78;;;23.56
78961;BMP280;68362;45.970;12.646;2023-07-16T00:50:29;101105.00;;;23.26
78961;BMP280;68362;45.970;12.646;2023-07-16T00:51:36;101107.19;;;23.24
78961;BMP280;68362;45.970;12.646;2023-07-16T00:52:39;101105.75;;;23.40
78961;BMP280;68362;45.970;12.646;2023-07-16T00:53:41;101107.66;;;23.40
78961;BMP280;68362;45.970;12.646;2023-07-16T00:54:44;101110.81;;;23.28
78961;BMP280;68362;45.970;12.646;2023-07-16T00:55:47;101104.00;;;23.36
78961;BMP280;68362;45.970;12.646;2023-07-16T00:56:49;101111.63;;;23.15
78961;BMP280;68362;45.970;12.646;2023-07-16T00:57:51;101108.94;;;23.56
78961;BMP280;68362;45.970;12.646;2023-07-16T00:58:54;101112.47;;;23.65
78961;BMP280;68362;45.970;12.646;2023-07-16T00:59:56;101102.41;;;23.71
78961;BMP280;68362;45.970;12.646;2023-07-16T01:00:58;101108.66;;;23.80
78961;BMP280;68362;45.970;12.646;2023-07-16T01:02:01;101102.41;;;23.93
78961;BMP280;68362;45.970;12.646;2023-07-16T01:03:05;101104.06;;;23.81
78961;BMP280;68362;45.970;12.646;2023-07-16T01:04:08;101106.22;;;23.92
78961;BMP280;68362;45.970;12.646;2023-07-16T01:05:10;101111.84;;;24.04
78961;BMP280;68362;45.970;12.646;2023-07-16T01:06:30;101109.22;;;23.91
78961;BMP280;68362;45.970;12.646;2023-07-16T01:07:33;101107.19;;;23.74
78961;BMP280;68362;45.970;12.646;2023-07-16T01:08:55;101106.16;;;23.84
78961;BMP280;68362;45.970;12.646;2023-07-16T01:09:59;101100.28;;;23.82
78961;BMP280;68362;45.970;12.646;2023-07-16T01:11:02;101099.91;;;23.88
78961;BMP280;68362;45.970;12.646;2023-07-16T01:12:08;101104.91;;;23.90
78961;BMP280;68362;45.970;12.646;2023-07-16T01:13:11;101097.00;;;23.49
78961;BMP280;68362;45.970;12.646;2023-07-16T01:14:16;101094.06;;;23.36
78961;BMP280;68362;45.970;12.646;2023-07-16T01:15:18;101101.50;;;23.53
78961;BMP280;68362;45.970;12.646;2023-07-16T01:16:22;101101.50;;;23.53
78961;BMP280;68362;45.970;12.646;2023-07-16T01:17:25;101102.78;;;23.42
78961;BMP280;68362;45.970;12.646;2023-07-16T01:18:27;101101.94;;;23.55
78961;BMP280;68362;45.970;12.646;2023-07-16T01:19:29;101102.78;;;23.78
78961;BMP280;68362;45.970;12.646;2023-07-16T01:20:31;101100.50;;;23.85
78961;BMP280;68362;45.970;12.646;2023-07-16T01:26:17;101090.91;;;24.15
78961;BMP280;68362;45.970;12.646;2023-07-16T01:29:14;101080.91;;;24.07
78961;BMP280;68362;45.970;12.646;2023-07-16T01:30:20;101085.44;;;23.98
78961;BMP280;68362;45.970;12.646;2023-07-16T01:31:23;101090.00;;;23.97
78961;BMP280;68362;45.970;12.646;2023-07-16T01:32:26;101074.75;;;24.06
78961;BMP280;68362;45.970;12.646;2023-07-16T01:33:31;101081.13;;;23.52
78961;BMP280;68362;45.970;12.646;2023-07-16T01:34:34;101079.56;;;23.37
78961;BMP280;68362;45.970;12.646;2023-07-16T01:35:38;101085.06;;;23.55
78961;BMP280;68362;45.970;12.646;2023-07-16T01:36:42;101081.41;;;23.64
78961;BMP280;68362;45.970;12.646;2023-07-16T01:37:44;101082.06;;;23.70
78961;BMP280;68362;45.970;12.646;2023-07-16T01:38:47;101075.53;;;23.62
78961;BMP280;68362;45.970;12.646;2023-07-16T01:39:49;101079.50;;;23.65
78961;BMP280;68362;45.970;12.646;2023-07-16T01:40:51;101075.97;;;23.56
78961;BMP280;68362;45.970;12.646;2023-07-16T01:41:53;101079.56;;;23.37
78961;BMP280;68362;45.970;12.646;2023-07-16T01:42:55;101085.00;;;23.60
78961;BMP280;68362;45.970;12.646;2023-07-16T01:43:58;101084.25;;;23.68
78961;BMP280;68362;45.970;12.646;2023-07-16T01:45:01;101083.41;;;23.81
78961;BMP280;68362;45.970;12.646;2023-07-16T01:46:03;101079.41;;;23.92
78961;BMP280;68362;45.970;12.646;2023-07-16T01:48:29;101080.31;;;24.10
78961;BMP280;68362;45.970;12.646;2023-07-16T01:49:31;101073.63;;;23.99
78961;BMP280;68362;45.970;12.646;2023-07-16T01:50:34;101075.13;;;24.14
78961;BMP280;68362;45.970;12.646;2023-07-16T01:51:36;101078.81;;;24.18
78961;BMP280;68362;45.970;12.646;2023-07-16T01:52:38;101080.13;;;24.29
78961;BMP280;68362;45.970;12.646;2023-07-16T01:53:41;101072.47;;;24.22
78961;BMP280;68362;45.970;12.646;2023-07-16T01:54:43;101074.53;;;24.25
78961;BMP280;68362;45.970;12.646;2023-07-16T01:55:45;101070.66;;;24.31
78961;BMP280;68362;45.970;12.646;2023-07-16T01:56:48;101071.16;;;24.33
78961;BMP280;68362;45.970;12.646;2023-07-16T01:57:50;101070.38;;;24.11
78961;BMP280;68362;45.970;12.646;2023-07-16T01:58:52;101070.63;;;24.23
78961;BMP280;68362;45.970;12.646;2023-07-16T01:59:54;101064.59;;;24.17
78961;BMP280;68362;45.970;12.646;2023-07-16T02:00:57;101077.66;;;24.19
78961;BMP280;68362;45.970;12.646;2023-07-16T02:01:59;101068.84;;;23.37
78961;BMP280;68362;45.970;12.646;2023-07-16T02:03:01;101065.56;;;23.40
78961;BMP280;68362;45.970;12.646;2023-07-16T02:04:03;101061.78;;;23.77
78961;BMP280;68362;45.970;12.646;2023-07-16T02:05:06;101067.94;;;23.78
78961;BMP280;68362;45.970;12.646;2023-07-16T02:06:08;101071.66;;;23.91
78961;BMP280;68362;45.970;12.646;2023-07-16T02:07:10;101070.75;;;23.95
78961;BMP280;68362;45.970;12.646;2023-07-16T02:08:12;101072.06;;;23.84
78961;BMP280;68362;45.970;12.646;2023-07-16T02:09:14;101064.47;;;24.00
78961;BMP280;68362;45.970;12.646;2023-07-16T02:10:16;101064.22;;;24.10
78961;BMP280;68362;45.970;12.646;2023-07-16T02:11:18;101063.84;;;24.03
78961;BMP280;68362;45.970;12.646;2023-07-16T02:12:20;101067.22;;;24.08
78961;BMP280;68362;45.970;12.646;2023-07-16T02:13:23;101063.69;;;23.99
78961;BMP280;68362;45.970;12.646;2023-07-16T02:14:25;101060.63;;;23.92
78961;BMP280;68362;45.970;12.646;2023-07-16T02:15:27;101071.06;;;23.94
78961;BMP280;68362;45.970;12.646;2023-07-16T02:16:28;101062.31;;;23.30
78961;BMP280;68362;45.970;12.646;2023-07-16T02:17:31;101076.78;;;23.42
78961;BMP280;68362;45.970;12.646;2023-07-16T02:18:33;101073.22;;;23.33
78961;BMP280;68362;45.970;12.646;2023-07-16T02:19:35;101079.84;;;23.50
78961;BMP280;68362;45.970;12.646;2023-07-16T02:20:37;101077.78;;;23.05
78961;BMP280;68362;45.970;12.646;2023-07-16T02:21:39;101070.63;;;23.28
78961;BMP280;68362;45.970;12.646;2023-07-16T02:22:41;101072.31;;;23.38
78961;BMP280;68362;45.970;12.646;2023-07-16T02:23:43;101071.00;;;23.49
78961;BMP280;68362;45.970;12.646;2023-07-16T02:24:46;101069.38;;;23.62
78961;BMP280;68362;45.970;12.646;2023-07-16T02:25:48;101079.09;;;23.71
78961;BMP280;68362;45.970;12.646;2023-07-16T02:26:50;101068.13;;;23.82
78961;BMP280;68362;45.970;12.646;2023-07-16T02:27:52;101073.53;;;23.68
78961;BMP280;68362;45.970;12.646;2023-07-16T02:28:54;101067.56;;;23.71
78961;BMP280;68362;45.970;12.646;2023-07-16T02:29:57;101067.81;;;23.83
78961;BMP280;68362;45.970;12.646;2023-07-16T02:30:59;101066.09;;;23.65
78961;BMP280;68362;45.970;12.646;2023-07-16T02:32:01;101067.56;;;23.71
78961;BMP280;68362;45.970;12.646;2023-07-16T02:33:03;101063.00;;;23.71
78961;BMP280;68362;45.970;12.646;2023-07-16T02:34:06;101076.47;;;23.80
78961;BMP280;68362;45.970;12.646;2023-07-16T02:35:08;101073.59;;;23.76
78961;BMP280;68362;45.970;12.646;2023-07-16T02:36:10;101064.63;;;23.81
78961;BMP280;68362;45.970;12.646;2023-07-16T02:37:12;101066.53;;;23.81
78961;BMP280;68362;45.970;12.646;2023-07-16T02:38:15;101063.41;;;23.87
78961;BMP280;68362;45.970;12.646;2023-07-16T02:39:17;101065.09;;;23.97
78961;BMP280;68362;45.970;12.646;2023-07-16T02:40:19;101062.75;;;23.82
78961;BMP280;68362;45.970;12.646;2023-07-16T02:41:21;101057.94;;;23.92
78961;BMP280;68362;45.970;12.646;2023-07-16T02:42:24;101059.09;;;24.00
78961;BMP280;68362;45.970;12.646;2023-07-16T02:43:26;101062.13;;;24.07
78961;BMP280;68362;45.970;12.646;2023-07-16T02:44:28;101057.13;;;24.05
78961;BMP280;68362;45.970;12.646;2023-07-16T02:45:30;101062.97;;;23.85
78961;BMP280;68362;45.970;12.646;2023-07-16T02:46:32;101056.97;;;23.88
78961;BMP280;68362;45.970;12.646;2023-07-16T02:47:35;101054.38;;;23.61
78961;BMP280;68362;45.970;12.646;2023-07-16T02:48:37;101057.03;;;23.38
78961;BMP280;68362;45.970;12.646;2023-07-16T02:49:39;101056.91;;;23.43
78961;BMP280;68362;45.970;12.646;2023-07-16T02:50:42;101059.72;;;23.38
78961;BMP280;68362;45.970;12.646;2023-07-16T02:51:44;101060.09;;;23.32
78961;BMP280;68362;45.970;12.646;2023-07-16T02:52:46;101061.63;;;23.24
78961;BMP280;68362;45.970;12.646;2023-07-16T02:53:48;101062.59;;;23.28
78961;BMP280;68362;45.970;12.646;2023-07-16T02:54:50;101058.97;;;23.24
78961;BMP280;68362;45.970;12.646;2023-07-16T02:55:52;101069.16;;;23.22
78961;BMP280;68362;45.970;12.646;2023-07-16T02:56:54;101074.63;;;22.90
78961;BMP280;68362;45.970;12.646;2023-07-16T02:57:57;101081.25;;;22.78
78961;BMP280;68362;45.970;12.646;2023-07-16T02:58:59;101072.84;;;22.99
78961;BMP280;68362;45.970;12.646;2023-07-16T03:00:02;101076.59;;;22.98
78961;BMP280;68362;45.970;12.646;2023-07-16T03:01:04;101073.06;;;22.89
78961;BMP280;68362;45.970;12.646;2023-07-16T03:02:06;101074.25;;;23.10
78961;BMP280;68362;45.970;12.646;2023-07-16T03:03:09;101075.13;;;22.92
78961;BMP280;68362;45.970;12.646;2023-07-16T03:04:11;101072.03;;;23.26
78961;BMP280;68362;45.970;12.646;2023-07-16T03:05:13;101078.59;;;23.33
78961;BMP280;68362;45.970;12.646;2023-07-16T03:06:15;101071.81;;;23.50
78961;BMP280;68362;45.970;12.646;2023-07-16T03:07:23;101073.72;;;23.71
78961;BMP280;68362;45.970;12.646;2023-07-16T03:08:25;101076.59;;;23.75
78961;BMP280;68362;45.970;12.646;2023-07-16T03:09:31;101082.19;;;23.87
78961;BMP280;68362;45.970;12.646;2023-07-16T03:10:33;101077.03;;;23.91
78961;BMP280;68362;45.970;12.646;2023-07-16T03:11:36;101078.25;;;23.85
78961;BMP280;68362;45.970;12.646;2023-07-16T03:12:38;101080.03;;;23.53
78961;BMP280;68362;45.970;12.646;2023-07-16T03:13:40;101077.38;;;23.75
78961;BMP280;68362;45.970;12.646;2023-07-16T03:14:43;101080.97;;;23.93
78961;BMP280;68362;45.970;12.646;2023-07-16T03:15:45;101083.19;;;23.91
78961;BMP280;68362;45.970;12.646;2023-07-16T03:16:47;101078.72;;;23.87
78961;BMP280;68362;45.970;12.646;2023-07-16T03:17:49;101080.97;;;23.71
78961;BMP280;68362;45.970;12.646;2023-07-16T03:18:53;101081.72;;;23.85
78961;BMP280;68362;45.970;12.646;2023-07-16T03:19:55;101083.56;;;23.98
78961;BMP280;68362;45.970;12.646;2023-07-16T03:20:57;101079.75;;;23.77
78961;BMP280;68362;45.970;12.646;2023-07-16T03:21:59;101080.63;;;23.86
78961;BMP280;68362;45.970;12.646;2023-07-16T03:23:01;101090.75;;;23.89
78961;BMP280;68362;45.970;12.646;2023-07-16T03:24:04;101090.47;;;23.77
78961;BMP280;68362;45.970;12.646;2023-07-16T03:25:07;101087.38;;;23.84
78961;BMP280;68362;45.970;12.646;2023-07-16T03:26:09;101083.22;;;23.77
78961;BMP280;68362;45.970;12.646;2023-07-16T03:27:11;101088.41;;;23.74
78961;BMP280;68362;45.970;12.646;2023-07-16T03:28:19;101089.75;;;23.63
78961;BMP280;68362;45.970;12.646;2023-07-16T03:29:21;101090.44;;;23.55
78961;BMP280;68362;45.970;12.646;2023-07-16T03:30:23;101085.41;;;23.75
78961;BMP280;68362;45.970;12.646;2023-07-16T03:31:25;101084.56;;;23.66
78961;BMP280;68362;45.970;12.646;2023-07-16T03:32:28;101087.69;;;23.46
78961;BMP280;68362;45.970;12.646;2023-07-16T03:33:50;101091.19;;;23.19
78961;BMP280;68362;45.970;12.646;2023-07-16T03:34:52;101082.38;;;23.32
78961;BMP280;68362;45.970;12.646;2023-07-16T03:35:54;101080.44;;;23.46
78961;BMP280;68362;45.970;12.646;2023-07-16T03:36:56;101087.84;;;23.63
78961;BMP280;68362;45.970;12.646;2023-07-16T03:37:58;101085.31;;;23.67
78961;BMP280;68362;45.970;12.646;2023-07-16T03:39:01;101086.28;;;23.62
78961;BMP280;68362;45.970;12.646;2023-07-16T03:40:17;101087.94;;;23.58
78961;BMP280;68362;45.970;12.646;2023-07-16T03:41:19;101088.81;;;23.67
78961;BMP280;68362;45.970;12.646;2023-07-16T03:42:21;101088.22;;;23.70
78961;BMP280;68362;45.970;12.646;2023-07-16T03:43:24;101093.94;;;23.77
78961;BMP280;68362;45.970;12.646;2023-07-16T03:44:26;101092.97;;;23.73
78961;BMP280;68362;45.970;12.646;2023-07-16T03:45:28;101101.72;;;23.79
78961;BMP280;68362;45.970;12.646;2023-07-16T03:46:30;101100.28;;;23.82
78961;BMP280;68362;45.970;12.646;2023-07-16T03:47:32;101093.22;;;23.63
78961;BMP280;68362;45.970;12.646;2023-07-16T03:48:35;101099.06;;;23.65
78961;BMP280;68362;45.970;12.646;2023-07-16T03:49:38;101094.84;;;23.23
78961;BMP280;68362;45.970;12.646;2023-07-16T03:50:40;101090.28;;;23.37
78961;BMP280;68362;45.970;12.646;2023-07-16T03:51:42;101093.72;;;23.52
78961;BMP280;68362;45.970;12.646;2023-07-16T03:52:44;101097.63;;;23.45
78961;BMP280;68362;45.970;12.646;2023-07-16T03:53:47;101094.31;;;23.62
78961;BMP280;68362;45.970;12.646;2023-07-16T03:54:49;101099.19;;;23.60
78961;BMP280;68362;45.970;12.646;2023-07-16T03:55:51;101108.50;;;23.63
78961;BMP280;68362;45.970;12.646;2023-07-16T03:56:53;101099.66;;;23.62
78961;BMP280;68362;45.970;12.646;2023-07-16T03:57:56;101107.28;;;23.69
78961;BMP280;68362;45.970;12.646;2023-07-16T03:58:58;101107.34;;;23.41
78961;BMP280;68362;45.970;12.646;2023-07-16T04:00:01;101099.94;;;23.61
78961;BMP280;68362;45.970;12.646;2023-07-16T04:01:04;101104.63;;;23.69
78961;BMP280;68362;45.970;12.646;2023-07-16T04:02:06;101108.94;;;23.42
78961;BMP280;68362;45.970;12.646;2023-07-16T04:03:09;101113.22;;;23.30
78961;BMP280;68362;45.970;12.646;2023-07-16T04:04:11;101100.56;;;23.58
78961;BMP280;68362;45.970;12.646;2023-07-16T04:05:13;101102.53;;;23.66
78961;BMP280;68362;45.970;12.646;2023-07-16T04:06:16;101111.00;;;23.59
78961;BMP280;68362;45.970;12.646;2023-07-16T04:07:18;101103.22;;;23.71
78961;BMP280;68362;45.970;12.646;2023-07-16T04:08:20;101111.69;;;23.65
78961;BMP280;68362;45.970;12.646;2023-07-16T04:09:22;101106.50;;;23.68
78961;BMP280;68362;45.970;12.646;2023-07-16T04:10:24;101106.88;;;23.75
78961;BMP280;68362;45.970;12.646;2023-07-16T04:11:27;101110.03;;;23.77
78961;BMP280;68362;45.970;12.646;2023-07-16T04:12:29;101114.38;;;23.87
78961;BMP280;68362;45.970;12.646;2023-07-16T04:13:31;101113.28;;;23.52
78961;BMP280;68362;45.970;12.646;2023-07-16T04:14:33;101110.75;;;23.33
78961;BMP280;68362;45.970;12.646;2023-07-16T04:15:36;101111.00;;;23.59
78961;BMP280;68362;45.970;12.646;2023-07-16T04:16:38;101104.88;;;23.81
78961;BMP280;68362;45.970;12.646;2023-07-16T04:17:40;101111.63;;;23.78
78961;BMP280;68362;45.970;12.646;2023-07-16T04:18:42;101114.44;;;23.73
78961;BMP280;68362;45.970;12.646;2023-07-16T04:19:45;101113.88;;;23.63
78961;BMP280;68362;45.970;12.646;2023-07-16T04:20:47;101117.28;;;23.41
78961;BMP280;68362;45.970;12.646;2023-07-16T04:21:49;101125.13;;;23.37
78961;BMP280;68362;45.970;12.646;2023-07-16T04:22:51;101123.25;;;23.24
78961;BMP280;68362;45.970;12.646;2023-07-16T04:23:54;101124.31;;;23.51
78961;BMP280;68362;45.970;12.646;2023-07-16T04:24:56;101115.34;;;23.69
78961;BMP280;68362;45.970;12.646;2023-07-16T04:25:58;101116.34;;;23.73
78961;BMP280;68362;45.970;12.646;2023-07-16T04:27:00;101120.09;;;23.72
78961;BMP280;68362;45.970;12.646;2023-07-16T04:28:03;101114.97;;;23.62
78961;BMP280;68362;45.970;12.646;2023-07-16T04:29:06;101119.47;;;23.39
78961;BMP280;68362;45.970;12.646;2023-07-16T04:30:08;101115.41;;;23.64
78961;BMP280;68362;45.970;12.646;2023-07-16T04:31:10;101117.66;;;23.62
78961;BMP280;68362;45.970;12.646;2023-07-16T04:32:12;101115.09;;;23.57
78961;BMP280;68362;45.970;12.646;2023-07-16T04:33:15;101119.19;;;23.76
78961;BMP280;68362;45.970;12.646;2023-07-16T04:34:17;101127.25;;;23.99
78961;BMP280;68362;45.970;12.646;2023-07-16T04:35:19;101125.09;;;23.87
78961;BMP280;68362;45.970;12.646;2023-07-16T04:36:21;101118.09;;;23.64
78961;BMP280;68362;45.970;12.646;2023-07-16T04:37:23;101116.50;;;23.27
78961;BMP280;68362;45.970;12.646;2023-07-16T04:38:25;101118.25;;;23.31
78961;BMP280;68362;45.970;12.646;2023-07-16T04:39:28;101110.13;;;23.23
78961;BMP280;68362;45.970;12.646;2023-07-16T04:40:30;101115.72;;;23.26
78961;BMP280;68362;45.970;12.646;2023-07-16T04:41:32;101110.56;;;23.30
78961;BMP280;68362;45.970;12.646;2023-07-16T04:42:34;101110.81;;;23.56
78961;BMP280;68362;45.970;12.646;2023-07-16T04:43:37;101111.41;;;23.53
78961;BMP280;68362;45.970;12.646;2023-07-16T04:44:39;101105.38;;;23.33
78961;BMP280;68362;45.970;12.646;2023-07-16T04:45:44;101116.25;;;23.51
78961;BMP280;68362;45.970;12.646;2023-07-16T04:46:48;101111.88;;;23.55
78961;BMP280;68362;45.970;12.646;2023-07-16T04:47:50;101111.28;;;23.58
78961;BMP280;68362;45.970;12.646;2023-07-16T04:48:53;101117.22;;;23.82
78961;BMP280;68362;45.970;12.646;2023-07-16T04:49:58;101112.75;;;23.64
78961;BMP280;68362;45.970;12.646;2023-07-16T04:51:01;101112.13;;;23.67
78961;BMP280;68362;45.970;12.646;2023-07-16T04:52:03;101115.56;;;23.59
78961;BMP280;68362;45.970;12.646;2023-07-16T04:53:05;101123.25;;;23.24
78961;BMP280;68362;45.970;12.646;2023-07-16T04:54:08;101128.47;;;23.02
78961;BMP280;68362;45.970;12.646;2023-07-16T04:55:10;101120.84;;;23.23
78961;BMP280;68362;45.970;12.646;2023-07-16T04:56:13;101129.97;;;23.49
78961;BMP280;68362;45.970;12.646;2023-07-16T04:57:16;101122.41;;;23.65
78961;BMP280;68362;45.970;12.646;2023-07-16T04:58:18;101119.59;;;23.70
78961;BMP280;68362;45.970;12.646;2023-07-16T04:59:20;101119.28;;;23.35
78961;BMP280;68362;45.970;12.646;2023-07-16T05:00:22;101114.03;;;23.30
78961;BMP280;68362;45.970;12.646;2023-07-16T05:01:24;101118.84;;;23.56
78961;BMP280;68362;45.970;12.646;2023-07-16T05:02:28;101119.28;;;23.35
78961;BMP280;68362;45.970;12.646;2023-07-16T05:03:30;101121.75;;;23.18
78961;BMP280;68362;45.970;12.646;2023-07-16T05:04:34;101121.25;;;23.43
78961;BMP280;68362;45.970;12.646;2023-07-16T05:05:36;101117.31;;;23.27
78961;BMP280;68362;45.970;12.646;2023-07-16T05:06:39;101120.72;;;23.55
78961;BMP280;68362;45.970;12.646;2023-07-16T05:07:41;101119.13;;;23.68
78961;BMP280;68362;45.970;12.646;2023-07-16T05:08:43;101117.22;;;23.82
78961;BMP280;68362;45.970;12.646;2023-07-16T05:09:49;101129.94;;;23.99
78961;BMP280;68362;45.970;12.646;2023-07-16T05:10:51;101127.31;;;23.85
78961;BMP280;68362;45.970;12.646;2023-07-16T05:11:53;101128.53;;;23.79
78961;BMP280;68362;45.970;12.646;2023-07-16T05:12:55;101128.97;;;23.59
78961;BMP280;68362;45.970;12.646;2023-07-16T05:13:57;101123.88;;;23.93
78961;BMP280;68362;45.970;12.646;2023-07-16T05:14:59;101118.22;;;23.72
78961;BMP280;68362;45.970;12.646;2023-07-16T05:16:01;101126.72;;;23.88
78961;BMP280;68362;45.970;12.646;2023-07-16T05:17:04;101124.41;;;23.95
78961;BMP280;68362;45.970;12.646;2023-07-16T05:18:06;101127.41;;;23.80
78961;BMP280;68362;45.970;12.646;2023-07-16T05:19:09;101134.09;;;23.69
78961;BMP280;68362;45.970;12.646;2023-07-16T05:20:11;101125.19;;;23.60
78961;BMP280;68362;45.970;12.646;2023-07-16T05:21:13;101131.91;;;23.71
78961;BMP280;68362;45.970;12.646;2023-07-16T05:22:15;101136.28;;;23.67
78961;BMP280;68362;45.970;12.646;2023-07-16T05:23:17;101137.03;;;23.81
78961;BMP280;68362;45.970;12.646;2023-07-16T05:24:19;101134.28;;;23.72
78961;BMP280;68362;45.970;12.646;2023-07-16T05:25:21;101141.59;;;23.94
78961;BMP280;68362;45.970;12.646;2023-07-16T05:26:24;101136.19;;;24.08
78961;BMP280;68362;45.970;12.646;2023-07-16T05:27:26;101136.97;;;24.31
78961;BMP280;68362;45.970;12.646;2023-07-16T05:28:28;101142.19;;;24.36
78961;BMP280;68362;45.970;12.646;2023-07-16T05:29:30;101141.97;;;24.46
78961;BMP280;68362;45.970;12.646;2023-07-16T05:30:32;101135.00;;;24.45
78961;BMP280;68362;45.970;12.646;2023-07-16T05:31:34;101142.66;;;24.60
78961;BMP280;68362;45.970;12.646;2023-07-16T05:32:36;101142.41;;;24.70
78961;BMP280;68362;45.970;12.646;2023-07-16T05:33:38;101145.84;;;24.62
78961;BMP280;68362;45.970;12.646;2023-07-16T05:34:41;101147.16;;;24.74
78961;BMP280;68362;45.970;12.646;2023-07-16T05:35:48;101142.13;;;24.81
78961;BMP280;68362;45.970;12.646;2023-07-16T05:36:53;101144.31;;;24.79
78961;BMP280;68362;45.970;12.646;2023-07-16T05:37:56;101143.25;;;24.57
78961;BMP280;68362;45.970;12.646;2023-07-16T05:38:58;101151.72;;;24.73
78961;BMP280;68362;45.970;12.646;2023-07-16T05:40:01;101146.56;;;24.85
78961;BMP280;68362;45.970;12.646;2023-07-16T05:41:05;101147.53;;;24.89
78961;BMP280;68362;45.970;12.646;2023-07-16T05:42:07;101150.84;;;24.86
78961;BMP280;68362;45.970;12.646;2023-07-16T05:43:09;101137.44;;;24.95
78961;BMP280;68362;45.970;12.646;2023-07-16T05:44:12;101137.03;;;24.70
78961;BMP280;68362;45.970;12.646;2023-07-16T05:45:14;101146.41;;;24.82
78961;BMP280;68362;45.970;12.646;2023-07-16T05:46:16;101142.19;;;25.07
78961;BMP280;68362;45.970;12.646;2023-07-16T05:47:18;101145.28;;;24.83
78961;BMP280;68362;45.970;12.646;2023-07-16T05:48:21;101141.56;;;25.01
78961;BMP280;68362;45.970;12.646;2023-07-16T05:49:24;101145.72;;;24.67
78961;BMP280;68362;45.970;12.646;2023-07-16T05:50:27;101146.09;;;24.83
78961;BMP280;68362;45.970;12.646;2023-07-16T05:51:29;101141.44;;;24.66
78961;BMP280;68362;45.970;12.646;2023-07-16T05:52:32;101150.25;;;24.36
78961;BMP280;68362;45.970;12.646;2023-07-16T05:53:34;101146.81;;;24.44
78961;BMP280;68362;45.970;12.646;2023-07-16T05:54:36;101149.81;;;24.65
78961;BMP280;68362;45.970;12.646;2023-07-16T05:55:39;101152.91;;;24.89
78961;BMP280;68362;45.970;12.646;2023-07-16T05:56:41;101150.19;;;24.81
78961;BMP280;68362;45.970;12.646;2023-07-16T05:57:44;101155.25;;;24.82
78961;BMP280;68362;45.970;12.646;2023-07-16T05:58:46;101148.75;;;24.75